Time;durP1;ratioP1;P1;durP2;ratioP2;P2;SDS_P1;SDS_P2;PMS_P1;PMS_P2;Temp;Humidity;BMP_temperature;BMP_pressure;BME280_temperature;BME280_humidity;BME280_pressure;Samples;Min_cycle;Max_cycle;Signal;HPM_P1;HPM_P2
2022/06/27 00:00:57;;;;;;;1.55;0.50;;;;;;;16.51;100.00;95619.22;5030793;28;24435;-77
2022/06/27 00:03:24;;;;;;;1.38;0.63;;;;;;;16.35;100.00;95654.56;5031187;28;24416;-77
2022/06/27 00:05:50;;;;;;;2.67;0.82;;;;;;;16.35;100.00;95685.06;5030701;28;24431;-77
2022/06/27 00:08:17;;;;;;;2.47;0.90;;;;;;;16.38;100.00;95718.78;5030660;28;24919;-77
2022/06/27 00:10:44;;;;;;;4.68;0.90;;;;;;;16.32;100.00;95748.91;5030740;28;24482;-77
2022/06/27 00:13:11;;;;;;;1.50;0.70;;;;;;;16.30;100.00;95789.19;5030905;28;24439;-77
2022/06/27 00:15:38;;;;;;;4.13;0.93;;;;;;;16.41;100.00;95844.00;5030795;28;24793;-77
2022/06/27 00:18:04;;;;;;;1.98;0.82;;;;;;;16.61;100.00;95878.88;5030298;28;24436;-77
2022/06/27 00:20:31;;;;;;;2.47;0.77;;;;;;;16.54;100.00;95880.34;5029720;28;24440;-77
2022/06/27 00:22:57;;;;;;;4.63;0.98;;;;;;;16.40;100.00;95844.94;5031172;28;24447;-77
2022/06/27 00:25:24;;;;;;;2.72;1.05;;;;;;;16.21;100.00;95838.66;5030386;28;25007;-77
2022/06/27 00:27:52;;;;;;;2.45;0.93;;;;;;;16.30;100.00;95854.53;5030151;28;24467;-77
2022/06/27 00:30:18;;;;;;;2.73;1.00;;;;;;;16.37;100.00;95860.88;5030597;28;24451;-77
2022/06/27 00:32:45;;;;;;;2.15;0.70;;;;;;;16.46;100.00;95857.47;5026511;28;24420;-77
2022/06/27 00:35:12;;;;;;;4.50;1.00;;;;;;;16.59;100.00;95825.91;5030344;28;24436;-77
2022/06/27 00:37:38;;;;;;;5.05;1.35;;;;;;;16.92;100.00;95817.78;5029950;28;24968;-77
2022/06/27 00:40:06;;;;;;;10.10;1.63;;;;;;;17.28;100.00;95794.56;5030306;28;24878;-77
2022/06/27 00:42:33;;;;;;;2.47;1.20;;;;;;;16.95;100.00;95780.06;5030289;28;24431;-77
2022/06/27 00:45:01;;;;;;;4.72;1.27;;;;;;;16.85;100.00;95764.34;5030173;28;24980;-77
2022/06/27 00:47:27;;;;;;;4.80;0.98;;;;;;;17.04;100.00;95718.25;5030269;28;24849;-77
2022/06/27 00:49:54;;;;;;;4.90;1.27;;;;;;;17.23;100.00;95670.31;5030079;28;24439;-77
2022/06/27 00:52:20;;;;;;;4.35;1.15;;;;;;;17.12;100.00;95640.69;5029868;28;24969;-77
2022/06/27 00:54:48;;;;;;;2.30;0.90;;;;;;;16.93;100.00;95662.47;5030357;28;24481;-77
2022/06/27 00:57:16;;;;;;;4.32;0.90;;;;;;;17.07;100.00;95669.09;5026283;28;24809;-77
2022/06/27 00:59:42;;;;;;;2.17;0.80;;;;;;;17.10;100.00;95629.56;5030093;28;24439;-77
2022/06/27 01:02:10;;;;;;;2.17;0.70;;;;;;;17.16;100.00;95610.66;5029234;28;24442;-77
2022/06/27 01:04:38;;;;;;;1.63;0.65;;;;;;;16.90;100.00;95612.22;5029771;28;24436;-77
2022/06/27 01:07:07;;;;;;;2.28;0.82;;;;;;;16.95;100.00;95612.66;5029657;28;24451;-77
2022/06/27 01:09:35;;;;;;;1.38;0.60;;;;;;;16.64;100.00;95622.38;5029090;28;24432;-77
2022/06/27 01:12:03;;;;;;;1.60;0.60;;;;;;;16.75;100.00;95629.28;5029647;28;24436;-77
2022/06/27 01:14:30;;;;;;;2.00;0.70;;;;;;;16.61;100.00;95631.34;5029848;28;25033;-77
2022/06/27 01:16:56;;;;;;;1.10;0.70;;;;;;;16.69;100.00;95641.94;5029301;28;24435;-77
2022/06/27 01:19:24;;;;;;;0.77;0.55;;;;;;;16.96;100.00;95632.59;5029517;28;24439;-77
2022/06/27 01:21:53;;;;;;;5.93;0.85;;;;;;;16.87;100.00;95649.09;5029823;28;24798;-77
2022/06/27 01:24:23;;;;;;;5.82;0.65;;;;;;;16.72;100.00;95655.69;5029804;28;24454;-77
2022/06/27 01:26:51;;;;;;;1.15;0.50;;;;;;;16.61;100.00;95649.63;5029243;28;24505;-77
2022/06/27 01:29:18;;;;;;;1.63;0.70;;;;;;;16.72;100.00;95648.66;5029848;28;24451;-77
2022/06/27 01:31:45;;;;;;;1.40;0.65;;;;;;;16.72;100.00;95653.88;5029493;28;24439;-77
2022/06/27 01:34:12;;;;;;;4.13;0.80;;;;;;;16.93;100.00;95648.56;5029835;28;24435;-77
2022/06/27 01:36:45;;;;;;;2.42;0.65;;;;;;;17.15;100.00;95661.34;5029304;28;24818;-77
2022/06/27 01:39:13;;;;;;;3.00;0.63;;;;;;;16.93;100.00;95687.81;5029504;28;24454;-77
2022/06/27 01:41:43;;;;;;;1.02;0.55;;;;;;;16.90;100.00;95701.16;5029470;28;24519;-77
2022/06/27 01:44:10;;;;;;;2.85;0.70;;;;;;;17.38;100.00;95679.38;5029242;28;24523;-77
2022/06/27 01:46:42;;;;;;;2.05;0.90;;;;;;;17.10;100.00;95676.66;5029572;28;24486;-77
2022/06/27 01:49:08;;;;;;;4.65;0.50;;;;;;;17.63;100.00;95683.19;5035514;28;24456;-77
2022/06/27 01:51:36;;;;;;;1.33;0.52;;;;;;;17.13;100.00;95673.78;5041025;28;24431;-77
2022/06/27 01:54:03;;;;;;;1.77;0.70;;;;;;;17.35;100.00;95671.78;5036758;28;24799;-77
2022/06/27 01:56:30;;;;;;;1.98;0.65;;;;;;;17.05;100.00;95676.22;5033956;28;24442;-77
2022/06/27 01:58:58;;;;;;;2.50;0.90;;;;;;;17.13;100.00;95665.91;5033220;28;24960;-77
2022/06/27 02:01:25;;;;;;;3.15;0.77;;;;;;;17.42;100.00;95665.84;5033324;28;24486;-77
2022/06/27 02:03:52;;;;;;;1.48;0.50;;;;;;;17.28;100.00;95681.16;5033250;28;24873;-77
2022/06/27 02:06:19;;;;;;;1.73;0.65;;;;;;;17.18;100.00;95687.25;5033086;28;24439;-77
2022/06/27 02:08:47;;;;;;;2.28;0.70;;;;;;;16.89;100.00;95686.44;5034219;28;24460;-77
2022/06/27 02:11:14;;;;;;;1.40;0.60;;;;;;;16.74;100.00;95698.25;5025677;28;24806;-77
2022/06/27 02:13:41;;;;;;;1.33;0.60;;;;;;;16.92;100.00;95689.59;5033380;28;24435;-77
2022/06/27 02:16:11;;;;;;;1.08;0.52;;;;;;;17.04;100.00;95679.81;5033397;28;24796;-77
2022/06/27 02:18:39;;;;;;;2.55;0.68;;;;;;;16.84;100.00;95675.56;5033034;28;24870;-77
2022/06/27 02:21:07;;;;;;;2.40;0.60;;;;;;;16.81;100.00;95694.97;5033604;28;24431;-77
2022/06/27 02:23:33;;;;;;;1.45;0.80;;;;;;;16.75;100.00;95698.09;5034012;28;24984;-77
2022/06/27 02:26:01;;;;;;;1.20;0.60;;;;;;;16.76;100.00;95694.56;5033183;28;24439;-77
2022/06/27 02:28:29;;;;;;;1.38;0.75;;;;;;;16.76;100.00;95704.16;5033517;28;24463;-77
2022/06/27 02:30:56;;;;;;;2.85;0.90;;;;;;;16.77;100.00;95695.38;5033358;28;24435;-77
2022/06/27 02:33:25;;;;;;;3.35;0.82;;;;;;;16.75;100.00;95671.13;5033189;28;24443;-77
2022/06/27 02:35:54;;;;;;;1.40;0.60;;;;;;;16.81;100.00;95668.81;5032869;28;24435;-77
2022/06/27 02:38:22;;;;;;;1.50;0.75;;;;;;;16.77;100.00;95666.59;5032793;28;24478;-77
2022/06/27 02:40:49;;;;;;;3.17;0.90;;;;;;;16.79;100.00;95657.66;5032977;28;25007;-77
2022/06/27 02:43:17;;;;;;;1.80;0.70;;;;;;;16.83;100.00;95648.56;5032983;28;24489;-77
2022/06/27 02:45:44;;;;;;;0.93;0.60;;;;;;;16.86;100.00;95652.69;5032642;28;24435;-77
2022/06/27 02:48:17;;;;;;;2.20;0.80;;;;;;;16.66;100.00;95646.59;5032185;28;24463;-77
2022/06/27 02:50:50;;;;;;;2.17;0.97;;;;;;;16.75;100.00;95652.81;5028863;28;24517;-77
2022/06/27 02:53:19;;;;;;;1.88;1.00;;;;;;;16.71;100.00;95660.09;5027572;28;24550;-76
2022/06/27 02:55:50;;;;;;;2.58;0.85;;;;;;;16.69;100.00;95673.31;5032744;28;24430;-77
2022/06/27 02:58:22;;;;;;;1.83;0.80;;;;;;;16.69;100.00;95672.50;5027401;28;24486;-77
2022/06/27 03:00:50;;;;;;;1.20;0.80;;;;;;;16.73;100.00;95662.59;5031756;28;24439;-77
2022/06/27 03:03:17;;;;;;;2.33;0.70;;;;;;;16.79;100.00;95673.34;5027132;28;24424;-77
2022/06/27 03:05:59;;;;;;;1.30;0.77;;;;;;;16.71;100.00;95681.00;5032614;28;24443;-77
2022/06/27 03:08:26;;;;;;;1.48;0.70;;;;;;;16.77;100.00;95667.44;5028997;28;24467;-77
2022/06/27 03:10:53;;;;;;;1.13;0.70;;;;;;;16.83;100.00;95642.50;5032792;28;24428;-77
2022/06/27 03:13:19;;;;;;;1.90;0.82;;;;;;;16.90;100.00;95644.44;5032732;28;24428;-77
2022/06/27 03:15:46;;;;;;;1.95;0.82;;;;;;;16.86;100.00;95650.09;5032549;28;24431;-77
2022/06/27 03:18:15;;;;;;;2.03;0.82;;;;;;;16.63;100.00;95662.56;5029706;28;24450;-77
2022/06/27 03:20:42;;;;;;;1.55;0.80;;;;;;;16.60;100.00;95676.72;5032544;28;24443;-76
2022/06/27 03:23:10;;;;;;;4.30;1.10;;;;;;;16.56;100.00;95691.03;5032051;28;24439;-77
2022/06/27 03:25:37;;;;;;;1.20;0.70;;;;;;;16.49;100.00;95692.53;5032397;28;24464;-76
2022/06/27 03:28:04;;;;;;;1.73;0.70;;;;;;;16.50;100.00;95673.28;5031538;28;25031;-77
2022/06/27 03:30:30;;;;;;;1.67;0.88;;;;;;;16.56;100.00;95651.81;5031402;28;25038;-77
2022/06/27 03:32:57;;;;;;;5.25;1.15;;;;;;;16.66;100.00;95634.34;5031759;28;24860;-77
2022/06/27 03:35:23;;;;;;;1.17;0.60;;;;;;;16.65;100.00;95632.72;5031930;28;24458;-77
2022/06/27 03:37:49;;;;;;;2.50;0.90;;;;;;;16.38;100.00;95635.97;5031557;28;24447;-77
2022/06/27 03:40:17;;;;;;;2.45;0.88;;;;;;;16.39;100.00;95644.66;5030182;28;24478;-77
2022/06/27 03:42:44;;;;;;;2.15;0.70;;;;;;;16.48;100.00;95656.09;5032210;28;24435;-77
2022/06/27 03:45:11;;;;;;;3.53;1.00;;;;;;;16.35;100.00;95654.56;5031450;28;24479;-77
2022/06/27 03:47:46;;;;;;;1.73;0.77;;;;;;;16.44;100.00;95658.97;5031478;28;24490;-77
2022/06/27 03:50:13;;;;;;;2.70;0.95;;;;;;;16.49;100.00;95662.94;5031696;28;24443;-77
2022/06/27 03:52:39;;;;;;;1.95;0.95;;;;;;;16.40;100.00;95668.03;5031811;28;24436;-77
2022/06/27 03:55:07;;;;;;;2.17;0.90;;;;;;;16.36;100.00;95650.97;5032010;28;24435;-77
2022/06/27 03:57:35;;;;;;;1.70;0.82;;;;;;;16.31;100.00;95657.53;5031292;28;24467;-77
2022/06/27 04:00:02;;;;;;;2.65;1.05;;;;;;;16.45;100.00;95670.25;5031256;28;24436;-77
2022/06/27 04:02:28;;;;;;;1.90;0.95;;;;;;;16.58;100.00;95662.97;5031204;28;24980;-77
2022/06/27 04:04:55;;;;;;;2.08;0.90;;;;;;;16.51;100.00;95654.03;5031203;28;24825;-77
2022/06/27 04:07:21;;;;;;;3.40;1.10;;;;;;;16.41;100.00;95646.16;5031306;28;24996;-77
2022/06/27 04:09:48;;;;;;;6.13;1.00;;;;;;;16.47;100.00;95626.50;5031739;28;24448;-77
2022/06/27 04:12:14;;;;;;;1.45;0.80;;;;;;;16.53;100.00;95630.34;5027508;28;24436;-77
2022/06/27 04:14:42;;;;;;;3.90;0.85;;;;;;;16.66;100.00;95617.84;5023560;28;24435;-77
2022/06/27 04:17:08;;;;;;;3.20;0.90;;;;;;;16.67;100.00;95598.56;5030733;28;24432;-77
2022/06/27 04:19:35;;;;;;;1.35;0.73;;;;;;;16.59;100.00;95583.56;5030924;28;24492;-76
2022/06/27 04:22:01;;;;;;;2.47;0.90;;;;;;;16.54;100.00;95593.63;5030865;28;24439;-77
2022/06/27 04:24:28;;;;;;;1.15;0.70;;;;;;;16.59;100.00;95598.44;5031072;28;24997;-76
2022/06/27 04:26:54;;;;;;;3.03;1.08;;;;;;;16.56;100.00;95585.63;5030183;28;24992;-76
2022/06/27 04:29:21;;;;;;;1.90;0.60;;;;;;;16.66;100.00;95592.53;5030262;28;24555;-76
2022/06/27 04:31:49;;;;;;;2.63;1.00;;;;;;;16.70;100.00;95595.69;5027768;28;24440;-76
2022/06/27 04:34:16;;;;;;;1.98;0.90;;;;;;;16.79;100.00;95610.56;5028523;28;24439;-76
2022/06/27 04:36:42;;;;;;;1.95;0.88;;;;;;;16.83;100.00;95611.13;5030604;28;25023;-78
2022/06/27 04:39:15;;;;;;;2.78;0.73;;;;;;;16.92;100.00;95608.50;5032438;28;24482;-75
2022/06/27 04:41:45;;;;;;;1.35;0.70;;;;;;;16.95;100.00;95610.03;5034290;28;24594;-75
2022/06/27 04:44:15;;;;;;;2.15;1.05;;;;;;;16.88;100.00;95601.09;5033731;28;24515;-75
2022/06/27 04:46:42;;;;;;;1.35;0.90;;;;;;;16.81;100.00;95598.19;5036330;28;24570;-75
2022/06/27 04:49:12;;;;;;;1.00;0.70;;;;;;;16.73;100.00;95589.38;5045421;28;24479;-75
2022/06/27 04:51:40;;;;;;;2.73;0.83;;;;;;;16.76;100.00;95591.72;5040164;28;24475;-75
2022/06/27 04:54:08;;;;;;;1.98;0.80;;;;;;;16.77;100.00;95598.63;5040665;28;25226;-75
2022/06/27 04:56:37;;;;;;;2.05;0.90;;;;;;;16.82;100.00;95606.84;5035743;28;24440;-75
2022/06/27 04:59:04;;;;;;;1.27;0.65;;;;;;;16.77;100.00;95624.75;5036142;28;24833;-75
2022/06/27 05:01:31;;;;;;;1.20;0.70;;;;;;;16.85;100.00;95635.34;5035065;28;24447;-75
2022/06/27 05:03:59;;;;;;;1.48;0.90;;;;;;;16.69;100.00;95630.66;5035856;28;24519;-75
2022/06/27 05:06:27;;;;;;;7.70;0.90;;;;;;;16.44;100.00;95635.44;5035840;28;24795;-75
2022/06/27 05:08:54;;;;;;;1.50;0.88;;;;;;;16.52;100.00;95644.38;5034950;28;24464;-74
2022/06/27 05:11:20;;;;;;;1.00;0.70;;;;;;;16.58;100.00;95662.16;5035577;28;25010;-74
2022/06/27 05:13:47;;;;;;;2.90;1.00;;;;;;;16.45;100.00;95673.69;5034188;28;24436;-74
2022/06/27 05:16:14;;;;;;;3.30;1.15;;;;;;;16.28;100.00;95689.16;5034706;28;24432;-76
2022/06/27 05:18:41;;;;;;;2.00;1.05;;;;;;;16.19;100.00;95689.00;5034352;28;24474;-75
2022/06/27 05:21:10;;;;;;;1.70;0.93;;;;;;;16.15;100.00;95674.56;5033465;28;24435;-75
2022/06/27 05:23:38;;;;;;;11.80;1.10;;;;;;;16.11;100.00;95686.25;5033019;28;24816;-74
2022/06/27 05:26:05;;;;;;;1.80;0.73;;;;;;;16.11;100.00;95701.91;5032787;28;24428;-75
2022/06/27 05:28:32;;;;;;;2.95;1.10;;;;;;;16.23;100.00;95712.28;5033373;28;24471;-74
2022/06/27 05:30:59;;;;;;;2.00;1.00;;;;;;;16.24;100.00;95706.06;5026841;28;24976;-73
2022/06/27 05:33:25;;;;;;;1.90;0.70;;;;;;;16.23;100.00;95699.22;5033856;28;24428;-74
2022/06/27 05:35:52;;;;;;;1.40;0.80;;;;;;;16.34;100.00;95702.53;5037086;28;24442;-74
2022/06/27 05:38:20;;;;;;;3.80;0.80;;;;;;;16.27;100.00;95709.25;5035916;28;24446;-73
2022/06/27 05:40:48;;;;;;;2.00;0.90;;;;;;;16.42;100.00;95707.09;5033316;28;24992;-73
2022/06/27 05:43:15;;;;;;;1.38;0.65;;;;;;;16.53;100.00;95706.97;5031446;28;24795;-73
2022/06/27 05:45:42;;;;;;;2.00;0.70;;;;;;;16.63;100.00;95713.06;5031829;28;24470;-74
2022/06/27 05:48:09;;;;;;;2.95;0.70;;;;;;;16.67;100.00;95714.44;5029760;28;24977;-74
2022/06/27 05:50:36;;;;;;;1.77;0.80;;;;;;;16.84;100.00;95723.47;5030306;28;24786;-74
2022/06/27 05:53:03;;;;;;;1.63;0.68;;;;;;;16.91;100.00;95716.72;5030216;28;24462;-74
2022/06/27 05:55:30;;;;;;;1.05;0.57;;;;;;;17.03;100.00;95734.91;5031325;28;24427;-76
2022/06/27 05:58:06;;;;;;;1.48;0.52;;;;;;;17.16;100.00;95725.81;5031424;28;25126;-76
2022/06/27 06:00:33;;;;;;;5.20;0.80;;;;;;;17.42;100.00;95733.09;5031052;28;24447;-75
2022/06/27 06:03:00;;;;;;;0.75;0.40;;;;;;;17.41;100.00;95740.13;5030856;28;24432;-76
2022/06/27 06:05:28;;;;;;;1.10;0.60;;;;;;;17.63;100.00;95732.94;5031897;28;24462;-76
2022/06/27 06:08:11;;;;;;;1.20;0.65;;;;;;;17.88;100.00;95718.47;5031604;28;24443;-75
2022/06/27 06:13:47;;;;;;;2.10;0.50;;;;;;;17.94;100.00;95712.63;5026844;28;24531;-76
2022/06/27 06:16:19;;;;;;;1.43;0.50;;;;;;;17.75;100.00;95737.09;5031070;28;24447;-76
2022/06/27 06:18:50;;;;;;;2.00;0.60;;;;;;;17.71;100.00;95740.94;5032408;28;24440;-77
2022/06/27 06:21:17;;;;;;;1.75;0.70;;;;;;;17.65;100.00;95737.09;5031531;28;24435;-76
2022/06/27 06:23:44;;;;;;;1.38;0.55;;;;;;;17.63;100.00;95746.03;5032650;28;24435;-76
2022/06/27 06:26:10;;;;;;;3.88;0.75;;;;;;;17.57;100.00;95754.44;5032420;28;24435;-76
2022/06/27 06:28:37;;;;;;;4.20;0.80;;;;;;;17.68;100.00;95759.53;5034305;28;24439;-77
2022/06/27 06:31:07;;;;;;;4.50;0.85;;;;;;;17.93;100.00;95742.44;5035517;28;24992;-76
2022/06/27 06:33:34;;;;;;;2.42;0.63;;;;;;;18.25;100.00;95736.81;5035825;28;24440;-76
2022/06/27 06:36:01;;;;;;;1.33;0.70;;;;;;;18.38;100.00;95732.03;5034028;28;24424;-76
2022/06/27 06:38:27;;;;;;;4.20;0.80;;;;;;;18.53;100.00;95719.28;5036639;28;24478;-76
2022/06/27 06:40:54;;;;;;;2.80;0.80;;;;;;;18.36;100.00;95733.19;5035780;28;24435;-76
2022/06/27 06:43:20;;;;;;;2.47;0.77;;;;;;;18.18;100.00;95745.41;5036311;28;24428;-76
2022/06/27 06:45:47;;;;;;;1.77;0.80;;;;;;;18.35;100.00;95748.09;5035830;28;24773;-76
2022/06/27 06:48:17;;;;;;;2.90;1.10;;;;;;;18.50;100.00;95745.81;5035428;28;24432;-76
2022/06/27 06:50:44;;;;;;;1.25;0.82;;;;;;;18.32;100.00;95752.81;5035608;28;24459;-76
2022/06/27 06:53:11;;;;;;;5.60;1.02;;;;;;;18.21;100.00;95760.84;5037967;28;24443;-77
2022/06/27 06:55:38;;;;;;;2.00;0.70;;;;;;;18.45;100.00;95765.56;5038603;28;24988;-76
2022/06/27 06:58:04;;;;;;;2.83;0.82;;;;;;;18.28;100.00;95769.75;5038991;28;24829;-77
2022/06/27 07:00:31;;;;;;;2.55;0.90;;;;;;;18.12;100.00;95773.81;5039103;28;24431;-76
2022/06/27 07:02:58;;;;;;;1.40;0.70;;;;;;;18.43;100.00;95767.50;5037843;28;24466;-77
2022/06/27 07:05:27;;;;;;;2.88;0.77;;;;;;;18.77;100.00;95767.78;5035711;28;24981;-76
2022/06/27 07:07:54;;;;;;;1.50;0.70;;;;;;;18.53;100.00;95753.38;5039084;28;24443;-77
2022/06/27 07:10:22;;;;;;;2.22;0.98;;;;;;;18.63;100.00;95746.28;5039296;28;24452;-76
2022/06/27 07:12:50;;;;;;;1.60;0.88;;;;;;;18.34;100.00;95756.09;5039424;28;24543;-76
2022/06/27 07:15:16;;;;;;;1.13;0.65;;;;;;;18.28;100.00;95756.66;5030728;28;24432;-77
2022/06/27 07:17:45;;;;;;;1.50;1.08;;;;;;;18.46;100.00;95754.09;5035684;28;24443;-77
2022/06/27 07:20:13;;;;;;;2.22;0.90;;;;;;;18.32;100.00;95758.03;5036382;28;25047;-76
2022/06/27 07:22:42;;;;;;;1.98;0.90;;;;;;;18.37;100.00;95761.88;5036335;28;24431;-76
2022/06/27 07:25:09;;;;;;;1.30;0.70;;;;;;;18.59;100.00;95760.66;5035953;28;24428;-76
2022/06/27 07:27:37;;;;;;;1.20;0.70;;;;;;;18.51;100.00;95768.44;5034162;28;24911;-76
2022/06/27 07:30:05;;;;;;;2.75;0.80;;;;;;;18.45;100.00;95774.25;5035088;28;24511;-76
2022/06/27 07:32:32;;;;;;;2.78;0.88;;;;;;;18.46;100.00;95786.38;5035345;28;25015;-77
2022/06/27 07:35:00;;;;;;;5.57;1.00;;;;;;;18.50;100.00;95798.28;5035335;28;24447;-76
2022/06/27 07:37:27;;;;;;;2.28;1.10;;;;;;;18.82;100.00;95810.16;5035065;28;24431;-76
2022/06/27 07:39:54;;;;;;;2.25;1.13;;;;;;;18.89;100.00;95818.28;5034652;28;24431;-76
2022/06/27 07:42:21;;;;;;;2.17;1.08;;;;;;;18.48;100.00;95829.03;5035916;28;24443;-76
2022/06/27 07:44:49;;;;;;;1.95;0.90;;;;;;;18.38;100.00;95839.56;5039097;28;24463;-76
2022/06/27 07:47:16;;;;;;;2.95;1.05;;;;;;;18.37;100.00;95842.31;5033758;28;24462;-76
2022/06/27 07:49:43;;;;;;;2.20;1.00;;;;;;;18.37;100.00;95843.16;5038436;28;24444;-77
2022/06/27 07:52:09;;;;;;;1.65;0.80;;;;;;;18.38;100.00;95854.47;5037628;28;24432;-77
2022/06/27 07:54:36;;;;;;;2.30;0.90;;;;;;;18.34;100.00;95855.72;5037256;28;24435;-76
2022/06/27 07:57:05;;;;;;;2.65;1.20;;;;;;;18.25;100.00;95848.72;5037225;28;24439;-77
2022/06/27 07:59:32;;;;;;;2.35;0.88;;;;;;;18.03;100.00;95834.97;5037552;28;25239;-77
2022/06/27 08:01:59;;;;;;;1.75;1.05;;;;;;;18.00;100.00;95827.38;5037146;28;24459;-76
2022/06/27 08:04:26;;;;;;;1.37;0.87;;;;;;;18.08;100.00;95824.03;5035773;28;24824;-76
2022/06/27 08:06:53;;;;;;;2.42;0.82;;;;;;;18.29;100.00;95829.13;5035490;28;24793;-75
2022/06/27 08:09:21;;;;;;;1.85;0.90;;;;;;;18.81;100.00;95826.88;5046752;23;24507;-74
2022/06/27 08:11:48;;;;;;;1.70;1.30;;;;;;;18.89;100.00;95849.75;5027285;28;24439;-74
2022/06/27 08:14:17;;;;;;;2.40;1.00;;;;;;;18.99;100.00;95845.31;5028875;28;24992;-75
2022/06/27 08:16:46;;;;;;;3.42;1.30;;;;;;;18.95;100.00;95839.50;5025846;28;24960;-74
2022/06/27 08:19:13;;;;;;;1.42;0.93;;;;;;;19.16;100.00;95848.91;5029350;28;24498;-75
2022/06/27 08:21:41;;;;;;;2.53;0.93;;;;;;;19.09;100.00;95849.50;5030748;28;24442;-74
2022/06/27 08:24:09;;;;;;;5.25;1.17;;;;;;;19.15;100.00;95842.03;5030488;28;24436;-76
2022/06/27 08:26:36;;;;;;;1.85;1.00;;;;;;;19.28;100.00;95852.97;5030647;28;24436;-75
2022/06/27 08:29:04;;;;;;;1.98;0.77;;;;;;;19.17;100.00;95859.28;5030202;28;24450;-75
2022/06/27 08:31:33;;;;;;;4.07;1.03;;;;;;;19.57;100.00;95865.94;5030240;28;24468;-76
2022/06/27 08:34:01;;;;;;;1.23;0.82;;;;;;;19.41;100.00;95873.66;5030365;28;24490;-76
2022/06/27 08:36:31;;;;;;;1.15;0.73;;;;;;;19.07;100.00;95875.09;5030039;28;24501;-75
2022/06/27 08:38:58;;;;;;;1.77;0.90;;;;;;;19.00;100.00;95879.25;5025224;28;24509;-74
2022/06/27 08:41:25;;;;;;;1.75;0.70;;;;;;;18.99;100.00;95885.50;5029556;28;24470;-75
2022/06/27 08:44:00;;;;;;;2.00;0.98;;;;;;;18.78;100.00;95875.22;5029994;28;24486;-75
2022/06/27 08:46:27;;;;;;;6.10;0.88;;;;;;;18.84;100.00;95868.56;5029934;28;24439;-74
2022/06/27 08:48:56;;;;;;;2.80;0.90;;;;;;;18.64;100.00;95873.00;5029331;28;25030;-75
2022/06/27 08:51:23;;;;;;;2.20;0.88;;;;;;;18.55;100.00;95879.97;5029265;28;24479;-75
2022/06/27 08:53:52;;;;;;;4.38;0.95;;;;;;;18.55;100.00;95882.59;5029955;28;24840;-75
2022/06/27 08:56:19;;;;;;;2.80;1.10;;;;;;;18.62;100.00;95891.53;5021772;28;24523;-75
2022/06/27 08:58:46;;;;;;;3.67;1.25;;;;;;;18.50;100.00;95892.69;5029291;28;24523;-75
2022/06/27 09:01:15;;;;;;;4.18;1.20;;;;;;;18.40;100.00;95897.13;5029449;28;24428;-75
2022/06/27 09:03:56;;;;;;;3.92;1.33;;;;;;;18.43;100.00;95901.22;5029647;28;24797;-75
2022/06/27 09:06:23;;;;;;;2.70;1.30;;;;;;;18.40;100.00;95901.53;5022438;28;24494;-75
2022/06/27 09:08:55;;;;;;;2.08;1.00;;;;;;;18.36;100.00;95898.38;5029230;28;24443;-74
2022/06/27 09:11:28;;;;;;;2.20;1.23;;;;;;;18.34;100.00;95905.53;5022281;28;24882;-75
2022/06/27 09:13:55;;;;;;;4.15;1.40;;;;;;;18.40;100.00;95902.38;5029362;28;24442;-75
2022/06/27 09:16:21;;;;;;;7.22;1.30;;;;;;;18.20;100.00;95888.44;5024484;28;24610;-75
2022/06/27 09:18:48;;;;;;;3.92;1.25;;;;;;;18.29;100.00;95876.31;5029198;28;25047;-75
2022/06/27 09:21:15;;;;;;;2.53;1.40;;;;;;;18.58;100.00;95858.69;5029707;28;24435;-75
2022/06/27 09:23:47;;;;;;;3.58;1.13;;;;;;;18.99;100.00;95861.03;5029348;28;25012;-75
2022/06/27 09:26:16;;;;;;;1.50;1.10;;;;;;;19.28;100.00;95871.38;5028745;28;24546;-75
2022/06/27 09:28:48;;;;;;;3.08;1.23;;;;;;;19.34;100.00;95871.59;5028878;28;24508;-75
2022/06/27 09:31:32;;;;;;;1.80;1.00;;;;;;;19.67;100.00;95876.41;5028629;28;25020;-75
2022/06/27 09:34:05;;;;;;;2.22;1.02;;;;;;;19.78;100.00;95874.38;5029135;28;24852;-75
2022/06/27 09:36:33;;;;;;;2.65;0.90;;;;;;;20.08;100.00;95884.66;5029238;28;24801;-74
2022/06/27 09:39:02;;;;;;;0.80;0.57;;;;;;;20.05;100.00;95894.47;5026524;28;24989;-74
2022/06/27 09:41:29;;;;;;;0.57;0.50;;;;;;;20.10;100.00;95904.56;5029024;28;24432;-75
2022/06/27 09:44:01;;;;;;;1.35;0.60;;;;;;;19.81;100.00;95905.63;5026746;28;24428;-75
2022/06/27 09:46:34;;;;;;;0.90;0.60;;;;;;;19.95;100.00;95916.56;5029083;28;24432;-74
2022/06/27 09:49:03;;;;;;;1.73;0.60;;;;;;;19.59;100.00;95914.72;5029108;28;24447;-75
2022/06/27 09:51:31;;;;;;;1.45;0.60;;;;;;;19.48;100.00;95922.81;5029115;28;24538;-75
2022/06/27 09:54:03;;;;;;;1.70;0.70;;;;;;;19.32;100.00;95920.84;5028939;28;24438;-74
2022/06/27 09:56:31;;;;;;;1.50;0.70;;;;;;;19.41;100.00;95927.00;5029053;28;24535;-75
2022/06/27 09:58:58;;;;;;;1.65;0.75;;;;;;;19.59;100.00;95943.63;5028936;28;24870;-75
2022/06/27 10:01:24;;;;;;;1.42;0.73;;;;;;;19.35;100.00;95940.72;5029067;28;24432;-74
2022/06/27 10:03:52;;;;;;;1.42;0.68;;;;;;;19.42;100.00;95952.28;5029220;28;24427;-74
2022/06/27 10:06:19;;;;;;;1.42;0.57;;;;;;;19.41;100.00;95960.31;5028578;28;24494;-74
2022/06/27 10:08:47;;;;;;;1.88;0.70;;;;;;;19.30;100.00;95956.09;5028741;28;24447;-74
2022/06/27 10:11:15;;;;;;;5.00;0.80;;;;;;;19.24;100.00;95975.03;5031143;28;24539;-74
2022/06/27 10:13:43;;;;;;;4.30;0.80;;;;;;;19.29;100.00;95980.69;5028343;28;24436;-74
2022/06/27 10:16:12;;;;;;;1.92;1.27;;;;;;;19.26;100.00;95988.88;5031115;28;24860;-72
2022/06/27 10:19:01;;;;;;;3.20;0.90;;;;;;;19.16;100.00;95988.88;5032125;28;25056;-72
2022/06/27 10:21:29;;;;;;;0.90;0.70;;;;;;;19.10;100.00;95987.69;5031297;28;24435;-71
2022/06/27 10:24:35;;;;;;;1.77;0.80;;;;;;;19.18;100.00;95991.38;5032102;28;24443;-72
2022/06/27 10:27:06;;;;;;;1.25;0.77;;;;;;;19.20;100.00;95977.13;5030334;28;24475;-72
2022/06/27 10:29:44;;;;;;;3.42;1.10;;;;;;;19.42;100.00;95973.31;5032067;28;24448;-72
2022/06/27 10:32:41;;;;;;;2.15;1.23;;;;;;;19.34;100.00;95974.03;5032470;28;24527;-72
2022/06/27 10:35:12;;;;;;;2.97;1.30;;;;;;;19.01;100.00;95992.94;5032319;28;24868;-72
2022/06/27 10:37:41;;;;;;;5.07;1.40;;;;;;;19.06;100.00;95990.75;5026683;28;24439;-72
2022/06/27 10:40:51;;;;;;;2.60;1.40;;;;;;;19.24;100.00;95996.88;5031506;28;24443;-72
2022/06/27 10:43:42;;;;;;;2.15;1.40;;;;;;;19.26;100.00;95994.94;5024356;28;24460;-72
2022/06/27 10:46:41;;;;;;;2.03;1.23;;;;;;;19.50;100.00;95983.91;5029918;28;25032;-68
2022/06/27 10:49:21;;;;;;;1.80;1.15;;;;;;;19.50;100.00;95985.69;5031658;28;25035;-72
2022/06/27 10:51:48;;;;;;;2.80;1.20;;;;;;;19.43;100.00;95996.00;5032143;28;24474;-72
2022/06/27 10:54:16;;;;;;;1.55;1.00;;;;;;;19.44;100.00;95997.63;5031846;28;24427;-72
2022/06/27 10:56:45;;;;;;;1.40;0.90;;;;;;;19.44;100.00;95994.19;5032027;28;24439;-72
2022/06/27 10:59:45;;;;;;;1.70;1.10;;;;;;;19.48;100.00;95999.00;5031554;28;24451;-72
2022/06/27 11:02:18;;;;;;;1.35;0.90;;;;;;;19.43;100.00;96001.25;5031257;28;24991;-74
2022/06/27 11:04:46;;;;;;;1.40;0.73;;;;;;;19.64;100.00;96001.00;5031784;28;25043;-73
2022/06/27 11:07:12;;;;;;;1.52;0.73;;;;;;;19.69;100.00;96008.44;5031808;28;24515;-74
2022/06/27 11:09:41;;;;;;;1.05;0.70;;;;;;;19.70;100.00;96013.56;5031737;28;24440;-72
2022/06/27 11:12:09;;;;;;;2.50;1.00;;;;;;;19.61;100.00;96009.16;5031574;28;24832;-72
2022/06/27 11:14:44;;;;;;;1.33;0.75;;;;;;;19.80;100.00;96003.00;5031508;28;24518;-72
2022/06/27 11:17:38;;;;;;;2.47;1.00;;;;;;;19.98;100.00;96003.84;5031168;28;24570;-72
2022/06/27 11:20:23;;;;;;;2.65;0.90;;;;;;;20.00;100.00;95995.81;5031732;28;24436;-73
2022/06/27 11:22:52;;;;;;;2.33;1.02;;;;;;;19.77;100.00;96003.31;5030874;28;24429;-72
2022/06/27 11:25:23;;;;;;;3.85;0.90;;;;;;;19.57;100.00;96005.97;5028166;28;24551;-72
2022/06/27 11:27:52;;;;;;;3.30;1.02;;;;;;;19.30;100.00;96016.50;5031707;28;24515;-72
2022/06/27 11:33:17;;;;;;;4.10;1.00;;;;;;;19.32;100.00;96018.00;5031431;28;24431;-73
2022/06/27 11:35:44;;;;;;;1.17;1.00;;;;;;;19.10;100.00;96010.47;5026929;28;24436;-75
2022/06/27 11:38:11;;;;;;;2.40;0.95;;;;;;;18.89;100.00;96013.28;5031110;28;24490;-74